Thursday, November 15, 2018, 8:26 PM EST
Back to Local

KAQW, N Adams Harriman-and-west

Location: North Adams, MA, United States Lat: 42.7
Local Time: 8:26 PM EST ( 1:26 GMT) Lon: -73.167
Time Zone: US/Eastern Elev: 652 ft

Show me the last for .
Show Decoded

2018-11-15 12:52 METAR KAQW 151752Z AUTO 07006KT 10SM CLR M02/M13 A3044 RMK AO2 SLP318 T10171133
                 11017 21078 58035 =
2018-11-15 07:52 METAR KAQW 151252Z AUTO 00000KT 10SM CLR M07/M10 A3059 RMK AO2 SLP370 T10671100
                 =
2018-11-15 06:52 METAR KAQW 151152Z AUTO 00000KT 10SM CLR M07/M10 A3054 RMK AO2 SLP354 T10721100
                 11067 21083 58012 =
2018-11-15 05:52 METAR KAQW 151052Z AUTO 00000KT 10SM CLR M07/M11 A3058 RMK AO2 SLP366 T10721106
                 =
2018-11-15 04:52 METAR KAQW 150952Z AUTO 01003KT 10SM CLR M08/M10 A3060 RMK AO2 SLP372 T10781100
                 =
2018-11-15 03:52 METAR KAQW 150852Z AUTO 00000KT 10SM CLR M08/M10 A3058 RMK AO2 SLP366 T10781100
                 50001 =
2018-11-15 02:52 METAR KAQW 150752Z AUTO 00000KT 10SM CLR M08/M11 A3058 RMK AO2 SLP367 T10781106
                 =
2018-11-15 01:52 METAR KAQW 150652Z AUTO 00000KT 10SM CLR M07/M11 A3058 RMK AO2 SLP367 T10721111
                 =
2018-11-15 00:52 METAR KAQW 150552Z AUTO 24003KT 10SM CLR M07/M12 A3057 RMK AO2 SLP364 T10671122
                 11044 21072 51005 =
2018-11-14 23:52 METAR KAQW 150452Z AUTO 31003KT 10SM CLR M07/M12 A3056 RMK AO2 SLP362 T10671117
                 410061072 =
2018-11-14 22:52 METAR KAQW 150352Z AUTO 00000KT 10SM CLR M07/M12 A3057 RMK AO2 SLP364 T10671117
                 =
2018-11-14 21:52 METAR KAQW 150252Z AUTO 25004KT 10SM CLR M06/M14 A3056 RMK AO2 SLP359 T10611139
                 51019 =
2018-11-14 20:52 METAR KAQW 150152Z AUTO 00000KT 10SM CLR M06/M14 A3054 RMK AO2 SLP351 T10561144
                 =

Support USWX by starting your Amazon purchase here.